sensor_id;sensor_type;location;lat;lon;timestamp;P1;durP1;ratioP1;P2;durP2;ratioP2
29218;SDS011;16421;50.202;7.852;2023-04-30T00:00:37;12.98;;;8.95;;
29218;SDS011;16421;50.202;7.852;2023-04-30T00:05:41;14.20;;;8.82;;
29218;SDS011;16421;50.202;7.852;2023-04-30T00:10:45;15.68;;;9.25;;
29218;SDS011;16421;50.202;7.852;2023-04-30T00:15:49;13.52;;;8.55;;
29218;SDS011;16421;50.202;7.852;2023-04-30T00:20:53;12.77;;;8.02;;
29218;SDS011;16421;50.202;7.852;2023-04-30T00:25:57;10.68;;;7.30;;
29218;SDS011;16421;50.202;7.852;2023-04-30T00:31:01;10.75;;;7.60;;
29218;SDS011;16421;50.202;7.852;2023-04-30T00:36:07;11.63;;;7.25;;
29218;SDS011;16421;50.202;7.852;2023-04-30T00:41:13;8.50;;;6.30;;
29218;SDS011;16421;50.202;7.852;2023-04-30T00:46:17;15.80;;;8.33;;
29218;SDS011;16421;50.202;7.852;2023-04-30T00:51:21;11.73;;;7.35;;
29218;SDS011;16421;50.202;7.852;2023-04-30T00:56:26;12.32;;;7.82;;
29218;SDS011;16421;50.202;7.852;2023-04-30T01:01:31;10.65;;;7.13;;
29218;SDS011;16421;50.202;7.852;2023-04-30T01:06:34;11.20;;;8.05;;
29218;SDS011;16421;50.202;7.852;2023-04-30T01:11:47;11.88;;;7.60;;
29218;SDS011;16421;50.202;7.852;2023-04-30T01:16:59;14.23;;;7.60;;
29218;SDS011;16421;50.202;7.852;2023-04-30T01:22:08;12.93;;;7.65;;
29218;SDS011;16421;50.202;7.852;2023-04-30T01:27:22;10.43;;;7.13;;
29218;SDS011;16421;50.202;7.852;2023-04-30T01:32:35;10.63;;;7.43;;
29218;SDS011;16421;50.202;7.852;2023-04-30T01:37:39;14.15;;;8.18;;
29218;SDS011;16421;50.202;7.852;2023-04-30T01:48:42;9.43;;;6.60;;
29218;SDS011;16421;50.202;7.852;2023-04-30T01:53:49;9.55;;;6.22;;
29218;SDS011;16421;50.202;7.852;2023-04-30T01:58:57;10.25;;;6.28;;
29218;SDS011;16421;50.202;7.852;2023-04-30T02:04:03;13.48;;;7.85;;
29218;SDS011;16421;50.202;7.852;2023-04-30T02:09:07;12.32;;;8.13;;
29218;SDS011;16421;50.202;7.852;2023-04-30T02:14:10;10.70;;;6.78;;
29218;SDS011;16421;50.202;7.852;2023-04-30T02:19:15;9.70;;;6.88;;
29218;SDS011;16421;50.202;7.852;2023-04-30T02:24:18;10.18;;;6.60;;
29218;SDS011;16421;50.202;7.852;2023-04-30T02:29:22;10.13;;;7.03;;
29218;SDS011;16421;50.202;7.852;2023-04-30T02:34:26;9.00;;;6.65;;
29218;SDS011;16421;50.202;7.852;2023-04-30T02:39:30;11.70;;;6.75;;
29218;SDS011;16421;50.202;7.852;2023-04-30T02:44:33;8.80;;;6.72;;
29218;SDS011;16421;50.202;7.852;2023-04-30T02:49:39;10.43;;;7.43;;
29218;SDS011;16421;50.202;7.852;2023-04-30T02:54:42;10.18;;;6.93;;
29218;SDS011;16421;50.202;7.852;2023-04-30T02:59:46;9.55;;;7.07;;
29218;SDS011;16421;50.202;7.852;2023-04-30T03:04:51;10.38;;;6.80;;
29218;SDS011;16421;50.202;7.852;2023-04-30T03:09:54;8.57;;;6.13;;
29218;SDS011;16421;50.202;7.852;2023-04-30T03:14:57;8.70;;;6.20;;
29218;SDS011;16421;50.202;7.852;2023-04-30T03:20:02;10.45;;;7.18;;
29218;SDS011;16421;50.202;7.852;2023-04-30T03:25:06;12.38;;;7.43;;
29218;SDS011;16421;50.202;7.852;2023-04-30T03:30:10;10.00;;;6.80;;
29218;SDS011;16421;50.202;7.852;2023-04-30T03:35:15;11.38;;;6.93;;
29218;SDS011;16421;50.202;7.852;2023-04-30T03:40:19;10.85;;;7.20;;
29218;SDS011;16421;50.202;7.852;2023-04-30T03:45:22;9.07;;;6.13;;
29218;SDS011;16421;50.202;7.852;2023-04-30T03:50:27;8.80;;;5.80;;
29218;SDS011;16421;50.202;7.852;2023-04-30T03:55:31;9.57;;;6.50;;
29218;SDS011;16421;50.202;7.852;2023-04-30T04:00:36;10.25;;;6.60;;
29218;SDS011;16421;50.202;7.852;2023-04-30T04:05:43;7.68;;;5.85;;
29218;SDS011;16421;50.202;7.852;2023-04-30T04:10:46;8.68;;;5.93;;
29218;SDS011;16421;50.202;7.852;2023-04-30T04:15:50;11.35;;;7.18;;
29218;SDS011;16421;50.202;7.852;2023-04-30T04:20:56;9.45;;;6.75;;
29218;SDS011;16421;50.202;7.852;2023-04-30T04:25:59;8.18;;;5.78;;
29218;SDS011;16421;50.202;7.852;2023-04-30T04:31:03;7.93;;;5.90;;
29218;SDS011;16421;50.202;7.852;2023-04-30T04:36:09;7.40;;;5.60;;
29218;SDS011;16421;50.202;7.852;2023-04-30T04:41:12;7.07;;;5.25;;
29218;SDS011;16421;50.202;7.852;2023-04-30T04:46:16;7.07;;;5.60;;
29218;SDS011;16421;50.202;7.852;2023-04-30T04:51:22;7.38;;;5.60;;
29218;SDS011;16421;50.202;7.852;2023-04-30T04:56:26;7.68;;;5.72;;
29218;SDS011;16421;50.202;7.852;2023-04-30T05:01:29;9.52;;;6.18;;
29218;SDS011;16421;50.202;7.852;2023-04-30T05:06:34;7.32;;;5.40;;
29218;SDS011;16421;50.202;7.852;2023-04-30T05:11:37;7.75;;;4.90;;
29218;SDS011;16421;50.202;7.852;2023-04-30T05:16:41;8.35;;;4.95;;
29218;SDS011;16421;50.202;7.852;2023-04-30T05:21:46;7.85;;;5.75;;
29218;SDS011;16421;50.202;7.852;2023-04-30T05:26:49;7.35;;;5.15;;
29218;SDS011;16421;50.202;7.852;2023-04-30T05:31:53;6.07;;;4.85;;
29218;SDS011;16421;50.202;7.852;2023-04-30T05:36:57;9.73;;;6.43;;
29218;SDS011;16421;50.202;7.852;2023-04-30T05:42:01;6.65;;;5.57;;
29218;SDS011;16421;50.202;7.852;2023-04-30T05:47:05;9.02;;;6.43;;
29218;SDS011;16421;50.202;7.852;2023-04-30T05:52:09;6.68;;;5.43;;
29218;SDS011;16421;50.202;7.852;2023-04-30T05:57:15;7.78;;;5.32;;
29218;SDS011;16421;50.202;7.852;2023-04-30T06:02:18;7.82;;;6.13;;
29218;SDS011;16421;50.202;7.852;2023-04-30T06:07:23;7.47;;;5.72;;
29218;SDS011;16421;50.202;7.852;2023-04-30T06:12:27;6.68;;;4.88;;
29218;SDS011;16421;50.202;7.852;2023-04-30T06:17:30;7.50;;;5.75;;
29218;SDS011;16421;50.202;7.852;2023-04-30T06:22:35;7.05;;;5.72;;
29218;SDS011;16421;50.202;7.852;2023-04-30T06:27:41;7.38;;;4.65;;
29218;SDS011;16421;50.202;7.852;2023-04-30T06:32:44;6.85;;;5.30;;
29218;SDS011;16421;50.202;7.852;2023-04-30T06:37:49;7.95;;;5.15;;
29218;SDS011;16421;50.202;7.852;2023-04-30T06:42:52;7.18;;;5.03;;
29218;SDS011;16421;50.202;7.852;2023-04-30T06:47:56;5.85;;;5.05;;
29218;SDS011;16421;50.202;7.852;2023-04-30T06:53:01;5.18;;;4.05;;
29218;SDS011;16421;50.202;7.852;2023-04-30T06:58:07;4.80;;;3.78;;
29218;SDS011;16421;50.202;7.852;2023-04-30T07:03:10;5.20;;;3.97;;
29218;SDS011;16421;50.202;7.852;2023-04-30T07:08:15;6.25;;;4.07;;
29218;SDS011;16421;50.202;7.852;2023-04-30T07:13:19;5.35;;;4.40;;
29218;SDS011;16421;50.202;7.852;2023-04-30T07:18:22;5.82;;;4.78;;
29218;SDS011;16421;50.202;7.852;2023-04-30T07:23:27;6.00;;;4.22;;
29218;SDS011;16421;50.202;7.852;2023-04-30T07:28:30;5.50;;;4.20;;
29218;SDS011;16421;50.202;7.852;2023-04-30T07:33:34;4.82;;;3.53;;
29218;SDS011;16421;50.202;7.852;2023-04-30T07:38:39;4.50;;;3.70;;
29218;SDS011;16421;50.202;7.852;2023-04-30T07:55:07;4.40;;;3.08;;
29218;SDS011;16421;50.202;7.852;2023-04-30T08:01:06;6.28;;;4.00;;
29218;SDS011;16421;50.202;7.852;2023-04-30T08:12:38;4.60;;;4.10;;
29218;SDS011;16421;50.202;7.852;2023-04-30T08:17:48;4.80;;;3.70;;
29218;SDS011;16421;50.202;7.852;2023-04-30T08:23:18;4.13;;;2.92;;
29218;SDS011;16421;50.202;7.852;2023-04-30T08:29:16;3.13;;;2.53;;
29218;SDS011;16421;50.202;7.852;2023-04-30T08:34:19;3.47;;;2.95;;
29218;SDS011;16421;50.202;7.852;2023-04-30T08:39:23;4.75;;;2.83;;
29218;SDS011;16421;50.202;7.852;2023-04-30T08:44:28;4.18;;;2.72;;
29218;SDS011;16421;50.202;7.852;2023-04-30T08:49:33;5.05;;;2.60;;
29218;SDS011;16421;50.202;7.852;2023-04-30T08:54:37;3.88;;;2.83;;
29218;SDS011;16421;50.202;7.852;2023-04-30T08:59:44;5.35;;;3.10;;
29218;SDS011;16421;50.202;7.852;2023-04-30T09:04:48;3.22;;;2.22;;
29218;SDS011;16421;50.202;7.852;2023-04-30T09:09:51;2.80;;;2.30;;
29218;SDS011;16421;50.202;7.852;2023-04-30T09:15:00;2.30;;;1.98;;
29218;SDS011;16421;50.202;7.852;2023-04-30T09:20:05;3.63;;;2.10;;
29218;SDS011;16421;50.202;7.852;2023-04-30T09:25:09;2.95;;;1.70;;
29218;SDS011;16421;50.202;7.852;2023-04-30T09:30:18;4.80;;;2.13;;
29218;SDS011;16421;50.202;7.852;2023-04-30T09:35:33;1.40;;;1.25;;
29218;SDS011;16421;50.202;7.852;2023-04-30T09:40:37;2.40;;;2.00;;
29218;SDS011;16421;50.202;7.852;2023-04-30T09:45:44;2.65;;;1.80;;
29218;SDS011;16421;50.202;7.852;2023-04-30T09:50:50;2.35;;;1.98;;
29218;SDS011;16421;50.202;7.852;2023-04-30T09:55:53;1.58;;;1.25;;
29218;SDS011;16421;50.202;7.852;2023-04-30T10:01:00;1.60;;;1.27;;
29218;SDS011;16421;50.202;7.852;2023-04-30T10:06:07;2.60;;;1.52;;
29218;SDS011;16421;50.202;7.852;2023-04-30T10:16:29;1.23;;;1.02;;
29218;SDS011;16421;50.202;7.852;2023-04-30T10:21:41;1.67;;;1.02;;
29218;SDS011;16421;50.202;7.852;2023-04-30T10:26:48;1.60;;;1.00;;
29218;SDS011;16421;50.202;7.852;2023-04-30T10:31:55;2.97;;;1.25;;
29218;SDS011;16421;50.202;7.852;2023-04-30T10:37:01;0.80;;;0.77;;
29218;SDS011;16421;50.202;7.852;2023-04-30T10:42:09;1.02;;;0.82;;
29218;SDS011;16421;50.202;7.852;2023-04-30T10:47:15;1.23;;;0.90;;
29218;SDS011;16421;50.202;7.852;2023-04-30T10:58:41;0.55;;;0.50;;
29218;SDS011;16421;50.202;7.852;2023-04-30T11:09:09;1.23;;;0.77;;
29218;SDS011;16421;50.202;7.852;2023-04-30T11:14:19;1.10;;;0.60;;
29218;SDS011;16421;50.202;7.852;2023-04-30T11:19:24;0.60;;;0.60;;
29218;SDS011;16421;50.202;7.852;2023-04-30T11:29:56;1.30;;;0.60;;
29218;SDS011;16421;50.202;7.852;2023-04-30T11:35:04;0.90;;;0.70;;
29218;SDS011;16421;50.202;7.852;2023-04-30T11:40:09;0.60;;;0.60;;
29218;SDS011;16421;50.202;7.852;2023-04-30T11:45:13;0.30;;;0.30;;
29218;SDS011;16421;50.202;7.852;2023-04-30T11:50:23;0.45;;;0.40;;
29218;SDS011;16421;50.202;7.852;2023-04-30T11:55:29;0.63;;;0.60;;
29218;SDS011;16421;50.202;7.852;2023-04-30T12:00:32;0.50;;;0.38;;
29218;SDS011;16421;50.202;7.852;2023-04-30T12:05:39;0.45;;;0.25;;
29218;SDS011;16421;50.202;7.852;2023-04-30T12:10:43;0.20;;;0.20;;
29218;SDS011;16421;50.202;7.852;2023-04-30T12:15:56;0.20;;;0.20;;
29218;SDS011;16421;50.202;7.852;2023-04-30T12:21:02;0.30;;;0.30;;
29218;SDS011;16421;50.202;7.852;2023-04-30T12:26:06;0.55;;;0.30;;
29218;SDS011;16421;50.202;7.852;2023-04-30T12:31:09;0.47;;;0.28;;
29218;SDS011;16421;50.202;7.852;2023-04-30T12:36:14;0.30;;;0.28;;
29218;SDS011;16421;50.202;7.852;2023-04-30T12:41:18;0.85;;;0.28;;
29218;SDS011;16421;50.202;7.852;2023-04-30T12:46:24;0.90;;;0.30;;
29218;SDS011;16421;50.202;7.852;2023-04-30T12:51:33;0.30;;;0.20;;
29218;SDS011;16421;50.202;7.852;2023-04-30T12:56:38;0.10;;;0.10;;
29218;SDS011;16421;50.202;7.852;2023-04-30T13:02:10;0.57;;;0.38;;
29218;SDS011;16421;50.202;7.852;2023-04-30T13:07:16;0.80;;;0.25;;
29218;SDS011;16421;50.202;7.852;2023-04-30T13:12:20;0.10;;;0.10;;
29218;SDS011;16421;50.202;7.852;2023-04-30T13:17:24;0.90;;;0.30;;
29218;SDS011;16421;50.202;7.852;2023-04-30T13:22:36;0.60;;;0.30;;
29218;SDS011;16421;50.202;7.852;2023-04-30T13:27:40;0.30;;;0.30;;
29218;SDS011;16421;50.202;7.852;2023-04-30T13:32:51;0.47;;;0.30;;
29218;SDS011;16421;50.202;7.852;2023-04-30T13:37:57;0.20;;;0.20;;
29218;SDS011;16421;50.202;7.852;2023-04-30T13:43:01;0.63;;;0.38;;
29218;SDS011;16421;50.202;7.852;2023-04-30T13:48:05;0.40;;;0.28;;
29218;SDS011;16421;50.202;7.852;2023-04-30T13:53:10;0.20;;;0.20;;
29218;SDS011;16421;50.202;7.852;2023-04-30T13:58:13;0.20;;;0.10;;
29218;SDS011;16421;50.202;7.852;2023-04-30T14:03:17;0.20;;;0.10;;
29218;SDS011;16421;50.202;7.852;2023-04-30T14:08:21;0.63;;;0.20;;
29218;SDS011;16421;50.202;7.852;2023-04-30T14:13:27;0.47;;;0.20;;
29218;SDS011;16421;50.202;7.852;2023-04-30T14:18:30;0.45;;;0.30;;
29218;SDS011;16421;50.202;7.852;2023-04-30T14:23:35;1.13;;;0.40;;
29218;SDS011;16421;50.202;7.852;2023-04-30T14:28:39;0.30;;;0.10;;
29218;SDS011;16421;50.202;7.852;2023-04-30T14:33:42;0.55;;;0.30;;
29218;SDS011;16421;50.202;7.852;2023-04-30T14:38:48;0.55;;;0.30;;
29218;SDS011;16421;50.202;7.852;2023-04-30T14:43:51;0.45;;;0.20;;
29218;SDS011;16421;50.202;7.852;2023-04-30T14:48:55;0.65;;;0.32;;
29218;SDS011;16421;50.202;7.852;2023-04-30T14:54:00;0.25;;;0.10;;
29218;SDS011;16421;50.202;7.852;2023-04-30T14:59:04;0.20;;;0.10;;
29218;SDS011;16421;50.202;7.852;2023-04-30T15:04:07;0.25;;;0.20;;
29218;SDS011;16421;50.202;7.852;2023-04-30T15:09:12;0.10;;;0.10;;
29218;SDS011;16421;50.202;7.852;2023-04-30T15:14:15;0.40;;;0.20;;
29218;SDS011;16421;50.202;7.852;2023-04-30T15:19:19;0.20;;;0.20;;
29218;SDS011;16421;50.202;7.852;2023-04-30T15:24:24;0.10;;;0.10;;
29218;SDS011;16421;50.202;7.852;2023-04-30T15:29:29;0.20;;;0.20;;
29218;SDS011;16421;50.202;7.852;2023-04-30T15:34:32;0.68;;;0.20;;
29218;SDS011;16421;50.202;7.852;2023-04-30T15:39:37;0.20;;;0.20;;
29218;SDS011;16421;50.202;7.852;2023-04-30T15:44:40;0.65;;;0.20;;
29218;SDS011;16421;50.202;7.852;2023-04-30T15:49:44;0.22;;;0.13;;
29218;SDS011;16421;50.202;7.852;2023-04-30T15:54:50;0.35;;;0.22;;
29218;SDS011;16421;50.202;7.852;2023-04-30T15:59:53;0.20;;;0.20;;
29218;SDS011;16421;50.202;7.852;2023-04-30T16:04:58;0.43;;;0.20;;
29218;SDS011;16421;50.202;7.852;2023-04-30T16:10:03;0.80;;;0.20;;
29218;SDS011;16421;50.202;7.852;2023-04-30T16:15:08;0.77;;;0.20;;
29218;SDS011;16421;50.202;7.852;2023-04-30T16:20:12;0.20;;;0.20;;
29218;SDS011;16421;50.202;7.852;2023-04-30T16:25:17;0.10;;;0.10;;
29218;SDS011;16421;50.202;7.852;2023-04-30T16:30:21;0.10;;;0.10;;
29218;SDS011;16421;50.202;7.852;2023-04-30T16:35:25;0.17;;;0.10;;
29218;SDS011;16421;50.202;7.852;2023-04-30T16:40:29;0.30;;;0.10;;
29218;SDS011;16421;50.202;7.852;2023-04-30T16:45:33;0.30;;;0.20;;
29218;SDS011;16421;50.202;7.852;2023-04-30T16:50:37;0.20;;;0.20;;
29218;SDS011;16421;50.202;7.852;2023-04-30T16:55:41;0.68;;;0.38;;
29218;SDS011;16421;50.202;7.852;2023-04-30T17:00:45;0.75;;;0.20;;
29218;SDS011;16421;50.202;7.852;2023-04-30T17:05:50;0.65;;;0.28;;
29218;SDS011;16421;50.202;7.852;2023-04-30T17:10:55;0.40;;;0.22;;
29218;SDS011;16421;50.202;7.852;2023-04-30T17:15:59;0.55;;;0.30;;
29218;SDS011;16421;50.202;7.852;2023-04-30T17:21:02;0.28;;;0.20;;
29218;SDS011;16421;50.202;7.852;2023-04-30T17:26:08;0.88;;;0.52;;
29218;SDS011;16421;50.202;7.852;2023-04-30T17:31:11;1.07;;;0.40;;
29218;SDS011;16421;50.202;7.852;2023-04-30T17:36:15;0.60;;;0.50;;
29218;SDS011;16421;50.202;7.852;2023-04-30T17:41:20;0.65;;;0.40;;
29218;SDS011;16421;50.202;7.852;2023-04-30T17:46:24;0.50;;;0.47;;
29218;SDS011;16421;50.202;7.852;2023-04-30T17:51:27;0.60;;;0.43;;
29218;SDS011;16421;50.202;7.852;2023-04-30T17:56:33;0.80;;;0.35;;
29218;SDS011;16421;50.202;7.852;2023-04-30T18:01:36;0.35;;;0.35;;
29218;SDS011;16421;50.202;7.852;2023-04-30T18:06:40;0.43;;;0.40;;
29218;SDS011;16421;50.202;7.852;2023-04-30T18:11:45;0.20;;;0.20;;
29218;SDS011;16421;50.202;7.852;2023-04-30T18:16:49;4.97;;;0.80;;
29218;SDS011;16421;50.202;7.852;2023-04-30T18:21:52;0.80;;;0.30;;
29218;SDS011;16421;50.202;7.852;2023-04-30T18:26:58;0.65;;;0.30;;
29218;SDS011;16421;50.202;7.852;2023-04-30T18:32:01;0.20;;;0.20;;
29218;SDS011;16421;50.202;7.852;2023-04-30T18:37:05;1.00;;;0.57;;
29218;SDS011;16421;50.202;7.852;2023-04-30T18:42:10;0.45;;;0.30;;
29218;SDS011;16421;50.202;7.852;2023-04-30T18:47:13;0.38;;;0.38;;
29218;SDS011;16421;50.202;7.852;2023-04-30T18:52:17;0.20;;;0.20;;
29218;SDS011;16421;50.202;7.852;2023-04-30T18:57:22;0.28;;;0.28;;
29218;SDS011;16421;50.202;7.852;2023-04-30T19:02:25;0.20;;;0.20;;
29218;SDS011;16421;50.202;7.852;2023-04-30T19:07:29;0.30;;;0.30;;
29218;SDS011;16421;50.202;7.852;2023-04-30T19:12:34;1.38;;;0.35;;
29218;SDS011;16421;50.202;7.852;2023-04-30T19:17:37;0.77;;;0.30;;
29218;SDS011;16421;50.202;7.852;2023-04-30T19:22:41;0.38;;;0.35;;
29218;SDS011;16421;50.202;7.852;2023-04-30T19:27:46;0.40;;;0.40;;
29218;SDS011;16421;50.202;7.852;2023-04-30T19:32:49;0.47;;;0.40;;
29218;SDS011;16421;50.202;7.852;2023-04-30T19:37:54;0.47;;;0.40;;
29218;SDS011;16421;50.202;7.852;2023-04-30T19:48:11;0.80;;;0.50;;
29218;SDS011;16421;50.202;7.852;2023-04-30T19:53:15;0.80;;;0.80;;
29218;SDS011;16421;50.202;7.852;2023-04-30T19:58:20;0.63;;;0.60;;
29218;SDS011;16421;50.202;7.852;2023-04-30T20:03:23;0.82;;;0.80;;
29218;SDS011;16421;50.202;7.852;2023-04-30T20:08:27;1.92;;;0.80;;
29218;SDS011;16421;50.202;7.852;2023-04-30T20:13:32;0.95;;;0.70;;
29218;SDS011;16421;50.202;7.852;2023-04-30T20:18:35;1.42;;;1.02;;
29218;SDS011;16421;50.202;7.852;2023-04-30T20:23:39;2.00;;;1.70;;
29218;SDS011;16421;50.202;7.852;2023-04-30T20:28:44;2.63;;;1.63;;
29218;SDS011;16421;50.202;7.852;2023-04-30T20:33:54;2.10;;;1.50;;
29218;SDS011;16421;50.202;7.852;2023-04-30T20:38:58;3.58;;;1.50;;
29218;SDS011;16421;50.202;7.852;2023-04-30T20:44:03;1.33;;;1.23;;
29218;SDS011;16421;50.202;7.852;2023-04-30T20:49:10;1.83;;;1.10;;
29218;SDS011;16421;50.202;7.852;2023-04-30T21:01:01;1.00;;;0.75;;
29218;SDS011;16421;50.202;7.852;2023-04-30T21:06:13;2.92;;;1.10;;
29218;SDS011;16421;50.202;7.852;2023-04-30T21:11:17;1.27;;;0.90;;
29218;SDS011;16421;50.202;7.852;2023-04-30T21:16:22;1.52;;;1.00;;
29218;SDS011;16421;50.202;7.852;2023-04-30T21:21:25;0.70;;;0.60;;
29218;SDS011;16421;50.202;7.852;2023-04-30T21:26:30;0.75;;;0.70;;
29218;SDS011;16421;50.202;7.852;2023-04-30T21:31:35;0.77;;;0.77;;
29218;SDS011;16421;50.202;7.852;2023-04-30T21:36:39;1.00;;;0.67;;
29218;SDS011;16421;50.202;7.852;2023-04-30T21:41:45;1.02;;;0.90;;
29218;SDS011;16421;50.202;7.852;2023-04-30T21:46:50;1.02;;;0.93;;
29218;SDS011;16421;50.202;7.852;2023-04-30T21:51:54;2.47;;;0.90;;
29218;SDS011;16421;50.202;7.852;2023-04-30T21:56:58;1.13;;;0.80;;
29218;SDS011;16421;50.202;7.852;2023-04-30T22:02:04;1.83;;;0.98;;
29218;SDS011;16421;50.202;7.852;2023-04-30T22:07:13;0.93;;;0.82;;
29218;SDS011;16421;50.202;7.852;2023-04-30T22:12:17;2.08;;;1.15;;
29218;SDS011;16421;50.202;7.852;2023-04-30T22:17:23;0.98;;;0.90;;
29218;SDS011;16421;50.202;7.852;2023-04-30T22:22:26;0.93;;;0.82;;
29218;SDS011;16421;50.202;7.852;2023-04-30T22:27:30;1.08;;;0.70;;
29218;SDS011;16421;50.202;7.852;2023-04-30T22:32:35;1.40;;;0.70;;
29218;SDS011;16421;50.202;7.852;2023-04-30T22:37:38;1.05;;;0.80;;
29218;SDS011;16421;50.202;7.852;2023-04-30T22:42:42;1.45;;;0.80;;
29218;SDS011;16421;50.202;7.852;2023-04-30T22:47:46;0.80;;;0.80;;
29218;SDS011;16421;50.202;7.852;2023-04-30T22:52:50;0.68;;;0.63;;
29218;SDS011;16421;50.202;7.852;2023-04-30T22:57:56;2.45;;;0.70;;
29218;SDS011;16421;50.202;7.852;2023-04-30T23:03:01;1.58;;;0.80;;
29218;SDS011;16421;50.202;7.852;2023-04-30T23:08:05;0.85;;;0.80;;
29218;SDS011;16421;50.202;7.852;2023-04-30T23:13:08;1.27;;;0.73;;
29218;SDS011;16421;50.202;7.852;2023-04-30T23:18:14;0.88;;;0.73;;
29218;SDS011;16421;50.202;7.852;2023-04-30T23:28:23;1.17;;;0.75;;
29218;SDS011;16421;50.202;7.852;2023-04-30T23:33:28;0.73;;;0.73;;
29218;SDS011;16421;50.202;7.852;2023-04-30T23:38:31;0.75;;;0.70;;
29218;SDS011;16421;50.202;7.852;2023-04-30T23:43:35;0.98;;;0.77;;
29218;SDS011;16421;50.202;7.852;2023-04-30T23:48:39;1.75;;;1.05;;
29218;SDS011;16421;50.202;7.852;2023-04-30T23:53:43;1.48;;;0.90;;
29218;SDS011;16421;50.202;7.852;2023-04-30T23:58:46;1.15;;;1.00;;
